PWSweather.com
Personal Weather Stations
Station Observations
UXOLA
Alcoy, AlcoyES

AlcoyAlcoyES

Lat: 38.70299, Lon: -0.48184

Elevation: 1935

Station Type: PCE FWS-20,

http://www.fiestasalcoy.xyz

High Low Average
Temperature 47.1°F8.4°C 38.7°F3.7°C 42.9°F6.1°C
Dew Point 38.7°F3.7°C 24.9°F-3.9°C 30.1°F-1.1°C
Winds 7.6 mph 12.2 kmh Calm Calm 2.0 mph SE3.2 kmh SE
Wind Gusts 17.4 mph28.0 kmh 0.7 mph1.1 kmh 5.0 mph8.0 kmh
Humidity 90% 45% 61%
Pressure 29.41 in995.9 mb 29.20 in988.8 mb -
Precipitation 0.04 in1.0 mm - -
Hour Temp Dew Point Humidity Winds Wind Gusts Pressure Precip Precip Rate Daily Precip Total
12:00 AM 43.2°F6.2°C 25.8°F-3.4°C 50% 7.6 mph WSW12.2 kmh WSW 11.4 mph18.3 kmh 29.41 in995.9 mb 0.00 in0.0 mm 0.00 in0.0 mm 0.00 in0.0 mm
12:15 AM 43.5°F6.4°C 26.1°F-3.3°C 50% 2.2 mph SW3.5 kmh SW 11.4 mph18.3 kmh 29.40 in995.6 mb 0.00 in0.0 mm 0.00 in0.0 mm 0.00 in0.0 mm
12:30 AM 43.3°F6.3°C 26.0°F-3.3°C 50% 3.8 mph NE6.1 kmh NE 5.4 mph8.7 kmh 29.41 in995.9 mb 0.00 in0.0 mm 0.00 in0.0 mm 0.00 in0.0 mm
12:45 AM 43.0°F6.1°C 25.6°F-3.6°C 50% 4.5 mph SW7.2 kmh SW 9.8 mph15.8 kmh 29.40 in995.6 mb 0.00 in0.0 mm 0.00 in0.0 mm 0.00 in0.0 mm
01:00 AM 42.6°F5.9°C 25.8°F-3.4°C 51% 3.8 mph WSW6.1 kmh WSW 6.0 mph9.7 kmh 29.40 in995.6 mb 0.00 in0.0 mm 0.00 in0.0 mm 0.00 in0.0 mm
01:15 AM 42.1°F5.6°C 25.3°F-3.7°C 51% 3.1 mph SW5.0 kmh SW 9.8 mph15.8 kmh 29.40 in995.6 mb 0.00 in0.0 mm 0.00 in0.0 mm 0.00 in0.0 mm
01:30 AM 41.9°F5.5°C 25.1°F-3.8°C 51% 3.8 mph W6.1 kmh W 6.9 mph11.1 kmh 29.39 in995.3 mb 0.00 in0.0 mm 0.00 in0.0 mm 0.00 in0.0 mm
01:45 AM 42.1°F5.6°C 25.3°F-3.7°C 51% 5.4 mph SW8.7 kmh SW 10.7 mph17.2 kmh 29.38 in994.9 mb 0.00 in0.0 mm 0.00 in0.0 mm 0.00 in0.0 mm
02:00 AM 42.3°F5.7°C 25.4°F-3.7°C 51% 4.5 mph WSW7.2 kmh WSW 14.5 mph23.3 kmh 29.37 in994.6 mb 0.00 in0.0 mm 0.00 in0.0 mm 0.00 in0.0 mm
02:15 AM 42.3°F5.7°C 25.4°F-3.7°C 51% 7.6 mph WNW12.2 kmh WNW 9.2 mph14.8 kmh 29.37 in994.6 mb 0.00 in0.0 mm 0.00 in0.0 mm 0.00 in0.0 mm
02:30 AM 42.6°F5.9°C 25.8°F-3.4°C 51% 6.0 mph WSW9.7 kmh WSW 17.4 mph28.0 kmh 29.36 in994.2 mb 0.00 in0.0 mm 0.00 in0.0 mm 0.00 in0.0 mm
02:45 AM 42.1°F5.6°C 25.3°F-3.7°C 51% 4.5 mph WSW7.2 kmh WSW 6.9 mph11.1 kmh 29.36 in994.2 mb 0.00 in0.0 mm 0.00 in0.0 mm 0.00 in0.0 mm
03:00 AM 42.1°F5.6°C 25.3°F-3.7°C 51% 1.6 mph N2.6 kmh N 6.0 mph9.7 kmh 29.36 in994.2 mb 0.00 in0.0 mm 0.00 in0.0 mm 0.00 in0.0 mm
03:15 AM 42.1°F5.6°C 25.3°F-3.7°C 51% 2.2 mph NE3.5 kmh NE 4.5 mph7.2 kmh 29.35 in993.9 mb 0.00 in0.0 mm 0.00 in0.0 mm 0.00 in0.0 mm
03:30 AM 41.9°F5.5°C 25.1°F-3.8°C 51% Calm Calm 1.6 mph2.6 kmh 29.35 in993.9 mb 0.00 in0.0 mm 0.00 in0.0 mm 0.00 in0.0 mm
03:45 AM 41.9°F5.5°C 25.1°F-3.8°C 51% 1.6 mph WNW2.6 kmh WNW 3.1 mph5.0 kmh 29.35 in993.9 mb 0.00 in0.0 mm 0.00 in0.0 mm 0.00 in0.0 mm
04:00 AM 41.7°F5.4°C 24.9°F-3.9°C 51% 1.6 mph WSW2.6 kmh WSW 2.2 mph3.5 kmh 29.34 in993.6 mb 0.00 in0.0 mm 0.00 in0.0 mm 0.00 in0.0 mm
04:15 AM 42.3°F5.7°C 25.4°F-3.7°C 51% 4.5 mph SW7.2 kmh SW 8.3 mph13.4 kmh 29.33 in993.2 mb 0.00 in0.0 mm 0.00 in0.0 mm 0.00 in0.0 mm
04:30 AM 42.3°F5.7°C 25.4°F-3.7°C 51% 2.2 mph NE3.5 kmh NE 3.8 mph6.1 kmh 29.33 in993.2 mb 0.00 in0.0 mm 0.00 in0.0 mm 0.00 in0.0 mm
04:45 AM 42.1°F5.6°C 25.3°F-3.7°C 51% 1.6 mph SSE2.6 kmh SSE 4.5 mph7.2 kmh 29.33 in993.2 mb 0.00 in0.0 mm 0.00 in0.0 mm 0.00 in0.0 mm
05:00 AM 41.9°F5.5°C 25.1°F-3.8°C 51% 3.1 mph SW5.0 kmh SW 6.0 mph9.7 kmh 29.33 in993.2 mb 0.00 in0.0 mm 0.00 in0.0 mm 0.00 in0.0 mm
05:15 AM 41.9°F5.5°C 25.6°F-3.6°C 52% 1.6 mph WSW2.6 kmh WSW 3.8 mph6.1 kmh 29.32 in992.9 mb 0.00 in0.0 mm 0.00 in0.0 mm 0.00 in0.0 mm
05:30 AM 41.5°F5.3°C 25.2°F-3.8°C 52% 0.7 mph SW1.1 kmh SW 3.1 mph5.0 kmh 29.32 in992.9 mb 0.00 in0.0 mm 0.00 in0.0 mm 0.00 in0.0 mm
05:45 AM 41.4°F5.2°C 25.5°F-3.6°C 53% 0.7 mph WSW1.1 kmh WSW 2.2 mph3.5 kmh 29.32 in992.9 mb 0.00 in0.0 mm 0.00 in0.0 mm 0.00 in0.0 mm
06:00 AM 41.0°F5.0°C 25.6°F-3.6°C 54% Calm Calm 2.2 mph3.5 kmh 29.31 in992.6 mb 0.00 in0.0 mm 0.00 in0.0 mm 0.00 in0.0 mm
06:15 AM 40.8°F4.9°C 25.9°F-3.4°C 55% Calm Calm 1.6 mph2.6 kmh 29.31 in992.6 mb 0.00 in0.0 mm 0.00 in0.0 mm 0.00 in0.0 mm
06:30 AM 40.3°F4.6°C 26.3°F-3.2°C 57% 2.2 mph WSW3.5 kmh WSW 4.5 mph7.2 kmh 29.30 in992.2 mb 0.00 in0.0 mm 0.00 in0.0 mm 0.00 in0.0 mm
06:45 AM 40.6°F4.8°C 26.2°F-3.2°C 56% Calm Calm 2.2 mph3.5 kmh 29.29 in991.9 mb 0.00 in0.0 mm 0.00 in0.0 mm 0.00 in0.0 mm
07:00 AM 39.9°F4.4°C 26.4°F-3.1°C 58% Calm Calm 2.2 mph3.5 kmh 29.29 in991.9 mb 0.00 in0.0 mm 0.00 in0.0 mm 0.00 in0.0 mm
07:15 AM 39.4°F4.1°C 26.7°F-2.9°C 60% Calm Calm 2.2 mph3.5 kmh 29.29 in991.9 mb 0.00 in0.0 mm 0.00 in0.0 mm 0.00 in0.0 mm
07:30 AM 39.0°F3.9°C 26.3°F-3.2°C 60% 1.6 mph SSW2.6 kmh SSW 3.8 mph6.1 kmh 29.28 in991.5 mb 0.00 in0.0 mm 0.00 in0.0 mm 0.00 in0.0 mm
07:45 AM 38.7°F3.7°C 26.4°F-3.1°C 61% 3.1 mph SW5.0 kmh SW 3.8 mph6.1 kmh 29.28 in991.5 mb 0.00 in0.0 mm 0.00 in0.0 mm 0.00 in0.0 mm
08:00 AM 39.0°F3.9°C 26.3°F-3.2°C 60% 3.1 mph W5.0 kmh W 3.8 mph6.1 kmh 29.27 in991.2 mb 0.00 in0.0 mm 0.00 in0.0 mm 0.00 in0.0 mm
08:15 AM 39.0°F3.9°C 26.3°F-3.2°C 60% 1.6 mph WSW2.6 kmh WSW 4.5 mph7.2 kmh 29.28 in991.5 mb 0.00 in0.0 mm 0.00 in0.0 mm 0.00 in0.0 mm
08:30 AM 39.0°F3.9°C 26.3°F-3.2°C 60% 2.2 mph W3.5 kmh W 6.0 mph9.7 kmh 29.28 in991.5 mb 0.00 in0.0 mm 0.00 in0.0 mm 0.00 in0.0 mm
08:45 AM 40.1°F4.5°C 27.3°F-2.6°C 60% 0.7 mph WSW1.1 kmh WSW 3.8 mph6.1 kmh 29.27 in991.2 mb 0.00 in0.0 mm 0.00 in0.0 mm 0.00 in0.0 mm
09:00 AM 40.1°F4.5°C 27.3°F-2.6°C 60% Calm Calm 2.2 mph3.5 kmh 29.27 in991.2 mb 0.00 in0.0 mm 0.00 in0.0 mm 0.00 in0.0 mm
09:15 AM 39.9°F4.4°C 27.2°F-2.7°C 60% Calm Calm 0.7 mph1.1 kmh 29.27 in991.2 mb 0.00 in0.0 mm 0.00 in0.0 mm 0.00 in0.0 mm
09:30 AM 40.1°F4.5°C 27.7°F-2.4°C 61% Calm Calm 0.7 mph1.1 kmh 29.27 in991.2 mb 0.00 in0.0 mm 0.00 in0.0 mm 0.00 in0.0 mm
09:45 AM 40.6°F4.8°C 28.3°F-2.1°C 61% 0.7 mph WSW1.1 kmh WSW 1.6 mph2.6 kmh 29.27 in991.2 mb 0.00 in0.0 mm 0.00 in0.0 mm 0.00 in0.0 mm
10:00 AM 41.4°F5.2°C 28.5°F-1.9°C 60% Calm Calm 2.2 mph3.5 kmh 29.27 in991.2 mb 0.00 in0.0 mm 0.00 in0.0 mm 0.00 in0.0 mm
10:15 AM 41.7°F5.4°C 28.9°F-1.7°C 60% Calm Calm 2.2 mph3.5 kmh 29.27 in991.2 mb 0.00 in0.0 mm 0.00 in0.0 mm 0.00 in0.0 mm
10:30 AM 42.3°F5.7°C 29.8°F-1.2°C 61% 0.7 mph NE1.1 kmh NE 2.2 mph3.5 kmh 29.27 in991.2 mb 0.00 in0.0 mm 0.00 in0.0 mm 0.00 in0.0 mm
10:45 AM 42.6°F5.9°C 30.1°F-1.1°C 61% Calm Calm 2.2 mph3.5 kmh 29.27 in991.2 mb 0.00 in0.0 mm 0.00 in0.0 mm 0.00 in0.0 mm
11:00 AM 43.2°F6.2°C 30.2°F-1.0°C 60% 0.7 mph ENE1.1 kmh ENE 2.2 mph3.5 kmh 29.27 in991.2 mb 0.00 in0.0 mm 0.00 in0.0 mm 0.00 in0.0 mm
11:15 AM 44.1°F6.7°C 27.1°F-2.7°C 51% Calm Calm 3.8 mph6.1 kmh 29.27 in991.2 mb 0.00 in0.0 mm 0.00 in0.0 mm 0.00 in0.0 mm
11:30 AM 45.0°F7.2°C 27.5°F-2.5°C 50% 1.6 mph NE2.6 kmh NE 2.2 mph3.5 kmh 29.27 in991.2 mb 0.00 in0.0 mm 0.00 in0.0 mm 0.00 in0.0 mm
11:45 AM 45.5°F7.5°C 27.0°F-2.8°C 48% Calm Calm 1.6 mph2.6 kmh 29.27 in991.2 mb 0.00 in0.0 mm 0.00 in0.0 mm 0.00 in0.0 mm
12:00 PM 46.4°F8.0°C 26.2°F-3.2°C 45% Calm Calm 3.1 mph5.0 kmh 29.26 in990.9 mb 0.00 in0.0 mm 0.00 in0.0 mm 0.00 in0.0 mm
12:15 PM 46.6°F8.1°C 29.0°F-1.7°C 50% 3.1 mph ENE5.0 kmh ENE 3.8 mph6.1 kmh 29.26 in990.9 mb 0.00 in0.0 mm 0.00 in0.0 mm 0.00 in0.0 mm
12:30 PM 46.4°F8.0°C 28.8°F-1.8°C 50% 0.7 mph ENE1.1 kmh ENE 3.8 mph6.1 kmh 29.26 in990.9 mb 0.00 in0.0 mm 0.00 in0.0 mm 0.00 in0.0 mm
12:45 PM 46.8°F8.2°C 28.6°F-1.9°C 49% 2.2 mph ENE3.5 kmh ENE 4.5 mph7.2 kmh 29.25 in990.5 mb 0.00 in0.0 mm 0.00 in0.0 mm 0.00 in0.0 mm
01:00 PM 47.1°F8.4°C 29.0°F-1.7°C 49% 3.8 mph E6.1 kmh E 5.4 mph8.7 kmh 29.24 in990.2 mb 0.00 in0.0 mm 0.00 in0.0 mm 0.00 in0.0 mm
01:15 PM 47.1°F8.4°C 29.0°F-1.7°C 49% 4.5 mph ENE7.2 kmh ENE 6.0 mph9.7 kmh 29.24 in990.2 mb 0.00 in0.0 mm 0.00 in0.0 mm 0.00 in0.0 mm
01:30 PM 46.9°F8.3°C 28.3°F-2.1°C 48% 3.1 mph NE5.0 kmh NE 6.0 mph9.7 kmh 29.24 in990.2 mb 0.00 in0.0 mm 0.00 in0.0 mm 0.00 in0.0 mm
01:45 PM 46.8°F8.2°C 29.1°F-1.6°C 50% 3.1 mph E5.0 kmh E 5.4 mph8.7 kmh 29.23 in989.8 mb 0.00 in0.0 mm 0.00 in0.0 mm 0.00 in0.0 mm
02:00 PM 46.8°F8.2°C 29.1°F-1.6°C 50% 3.8 mph ENE6.1 kmh ENE 5.4 mph8.7 kmh 29.22 in989.5 mb 0.00 in0.0 mm 0.00 in0.0 mm 0.00 in0.0 mm
02:15 PM 46.8°F8.2°C 29.1°F-1.6°C 50% 2.2 mph E3.5 kmh E 6.0 mph9.7 kmh 29.22 in989.5 mb 0.00 in0.0 mm 0.00 in0.0 mm 0.00 in0.0 mm
02:45 PM 46.4°F8.0°C 29.7°F-1.3°C 52% 6.0 mph ENE9.7 kmh ENE 7.6 mph12.2 kmh 29.21 in989.2 mb 0.00 in0.0 mm 0.00 in0.0 mm 0.00 in0.0 mm
03:00 PM 46.2°F7.9°C 30.0°F-1.1°C 53% 4.5 mph ENE7.2 kmh ENE 7.6 mph12.2 kmh 29.21 in989.2 mb 0.00 in0.0 mm 0.00 in0.0 mm 0.00 in0.0 mm
03:15 PM 46.6°F8.1°C 31.3°F-0.4°C 55% 3.8 mph ENE6.1 kmh ENE 5.4 mph8.7 kmh 29.21 in989.2 mb 0.00 in0.0 mm 0.00 in0.0 mm 0.00 in0.0 mm
03:30 PM 46.6°F8.1°C 31.3°F-0.4°C 55% 3.8 mph NE6.1 kmh NE 7.6 mph12.2 kmh 29.21 in989.2 mb 0.00 in0.0 mm 0.00 in0.0 mm 0.00 in0.0 mm
03:45 PM 46.2°F7.9°C 31.0°F-0.6°C 55% 4.5 mph NE7.2 kmh NE 6.0 mph9.7 kmh 29.20 in988.8 mb 0.00 in0.0 mm 0.00 in0.0 mm 0.00 in0.0 mm
04:00 PM 46.2°F7.9°C 31.8°F-0.1°C 57% 3.8 mph ENE6.1 kmh ENE 6.0 mph9.7 kmh 29.21 in989.2 mb 0.00 in0.0 mm 0.00 in0.0 mm 0.00 in0.0 mm
04:15 PM 46.2°F7.9°C 32.3°F0.2°C 58% 1.6 mph NE2.6 kmh NE 3.8 mph6.1 kmh 29.21 in989.2 mb 0.00 in0.0 mm 0.00 in0.0 mm 0.00 in0.0 mm
04:30 PM 45.9°F7.7°C 33.2°F0.7°C 61% 2.2 mph NE3.5 kmh NE 4.5 mph7.2 kmh 29.20 in988.8 mb 0.00 in0.0 mm 0.00 in0.0 mm 0.00 in0.0 mm
04:45 PM 45.3°F7.4°C 32.3°F0.2°C 60% 0.7 mph NE1.1 kmh NE 6.0 mph9.7 kmh 29.21 in989.2 mb 0.00 in0.0 mm 0.00 in0.0 mm 0.00 in0.0 mm
05:00 PM 45.3°F7.4°C 32.7°F0.4°C 61% 2.2 mph NE3.5 kmh NE 3.8 mph6.1 kmh 29.20 in988.8 mb 0.00 in0.0 mm 0.00 in0.0 mm 0.00 in0.0 mm
05:15 PM 45.3°F7.4°C 32.7°F0.4°C 61% 1.6 mph E2.6 kmh E 4.5 mph7.2 kmh 29.20 in988.8 mb 0.00 in0.0 mm 0.00 in0.0 mm 0.00 in0.0 mm
05:30 PM 45.1°F7.3°C 32.9°F0.5°C 62% 3.1 mph E5.0 kmh E 4.5 mph7.2 kmh 29.20 in988.8 mb 0.00 in0.0 mm 0.00 in0.0 mm 0.00 in0.0 mm
05:45 PM 44.8°F7.1°C 32.6°F0.3°C 62% 3.1 mph NE5.0 kmh NE 5.4 mph8.7 kmh 29.21 in989.2 mb 0.00 in0.0 mm 0.00 in0.0 mm 0.00 in0.0 mm
06:00 PM 44.6°F7.0°C 32.4°F0.2°C 62% 2.2 mph ENE3.5 kmh ENE 6.0 mph9.7 kmh 29.21 in989.2 mb 0.00 in0.0 mm 0.00 in0.0 mm 0.00 in0.0 mm
06:15 PM 44.2°F6.8°C 32.8°F0.4°C 64% 3.8 mph E6.1 kmh E 5.4 mph8.7 kmh 29.21 in989.2 mb 0.00 in0.0 mm 0.00 in0.0 mm 0.00 in0.0 mm
06:30 PM 43.9°F6.6°C 35.1°F1.7°C 71% 2.2 mph ENE3.5 kmh ENE 4.5 mph7.2 kmh 29.21 in989.2 mb 0.00 in0.0 mm 0.00 in0.0 mm 0.00 in0.0 mm
06:45 PM 43.3°F6.3°C 35.6°F2.0°C 74% 3.1 mph ENE5.0 kmh ENE 4.5 mph7.2 kmh 29.21 in989.2 mb 0.00 in0.0 mm 0.00 in0.0 mm 0.00 in0.0 mm
07:00 PM 43.0°F6.1°C 36.6°F2.6°C 78% 2.2 mph NE3.5 kmh NE 4.5 mph7.2 kmh 29.22 in989.5 mb 0.00 in0.0 mm 0.00 in0.0 mm 0.00 in0.0 mm
07:15 PM 42.8°F6.0°C 36.7°F2.6°C 79% Calm Calm 2.2 mph3.5 kmh 29.23 in989.8 mb 0.00 in0.0 mm 0.00 in0.0 mm 0.00 in0.0 mm
07:30 PM 42.4°F5.8°C 36.7°F2.6°C 80% 1.6 mph ENE2.6 kmh ENE 3.1 mph5.0 kmh 29.22 in989.5 mb 0.00 in0.0 mm 0.00 in0.0 mm 0.00 in0.0 mm
07:45 PM 42.3°F5.7°C 36.9°F2.7°C 81% 2.2 mph E3.5 kmh E 4.5 mph7.2 kmh 29.21 in989.2 mb 0.00 in0.0 mm 0.00 in0.0 mm 0.00 in0.0 mm
08:00 PM 42.1°F5.6°C 37.0°F2.8°C 82% 1.6 mph NE2.6 kmh NE 4.5 mph7.2 kmh 29.22 in989.5 mb 0.00 in0.0 mm 0.00 in0.0 mm 0.00 in0.0 mm
08:15 PM 42.1°F5.6°C 37.3°F2.9°C 83% 3.1 mph ENE5.0 kmh ENE 3.8 mph6.1 kmh 29.22 in989.5 mb 0.00 in0.0 mm 0.00 in0.0 mm 0.00 in0.0 mm
08:30 PM 41.9°F5.5°C 37.1°F2.8°C 83% 1.6 mph E2.6 kmh E 3.8 mph6.1 kmh 29.22 in989.5 mb 0.00 in0.0 mm 0.00 in0.0 mm 0.00 in0.0 mm
08:45 PM 41.9°F5.5°C 37.4°F3.0°C 84% 1.6 mph ENE2.6 kmh ENE 3.8 mph6.1 kmh 29.22 in989.5 mb 0.00 in0.0 mm 0.00 in0.0 mm 0.00 in0.0 mm
09:00 PM 41.7°F5.4°C 37.6°F3.1°C 85% 2.2 mph ENE3.5 kmh ENE 3.1 mph5.0 kmh 29.22 in989.5 mb 0.00 in0.0 mm 0.00 in0.0 mm 0.00 in0.0 mm
09:15 PM 41.7°F5.4°C 37.8°F3.2°C 86% 1.6 mph ENE2.6 kmh ENE 3.8 mph6.1 kmh 29.22 in989.5 mb 0.00 in0.0 mm 0.00 in0.0 mm 0.00 in0.0 mm
09:30 PM 41.7°F5.4°C 38.1°F3.4°C 87% 2.2 mph NE3.5 kmh NE 6.0 mph9.7 kmh 29.21 in989.2 mb 0.00 in0.0 mm 0.00 in0.0 mm 0.00 in0.0 mm
09:45 PM 41.5°F5.3°C 38.0°F3.3°C 87% 3.8 mph NE6.1 kmh NE 4.5 mph7.2 kmh 29.21 in989.2 mb 0.00 in0.0 mm 0.00 in0.0 mm 0.00 in0.0 mm
10:00 PM 41.5°F5.3°C 38.3°F3.5°C 88% 1.6 mph NE2.6 kmh NE 3.8 mph6.1 kmh 29.22 in989.5 mb 0.00 in0.0 mm 0.00 in0.0 mm 0.00 in0.0 mm
10:15 PM 41.5°F5.3°C 38.3°F3.5°C 88% 3.1 mph E5.0 kmh E 3.1 mph5.0 kmh 29.21 in989.2 mb 0.00 in0.0 mm 0.00 in0.0 mm 0.00 in0.0 mm
10:30 PM 41.5°F5.3°C 38.3°F3.5°C 88% 3.1 mph E5.0 kmh E 4.5 mph7.2 kmh 29.21 in989.2 mb 0.00 in0.0 mm 0.00 in0.0 mm 0.00 in0.0 mm
10:45 PM 41.5°F5.3°C 38.3°F3.5°C 88% 0.7 mph ENE1.1 kmh ENE 3.8 mph6.1 kmh 29.21 in989.2 mb 0.00 in0.0 mm 0.00 in0.0 mm 0.00 in0.0 mm
11:00 PM 41.5°F5.3°C 38.5°F3.6°C 89% 0.7 mph E1.1 kmh E 3.8 mph6.1 kmh 29.21 in989.2 mb 0.00 in0.0 mm 0.00 in0.0 mm 0.00 in0.0 mm
11:15 PM 41.4°F5.2°C 38.7°F3.7°C 90% 0.7 mph ENE1.1 kmh ENE 3.1 mph5.0 kmh 29.21 in989.2 mb 0.00 in0.0 mm 0.00 in0.0 mm 0.00 in0.0 mm
11:30 PM 41.4°F5.2°C 38.7°F3.7°C 90% 1.6 mph E2.6 kmh E 3.1 mph5.0 kmh 29.21 in989.2 mb 0.01 in0.3 mm 0.04 in1.0 mm 0.01 in0.3 mm
11:45 PM 40.6°F4.8°C 37.9°F3.3°C 90% 2.2 mph E3.5 kmh E 4.5 mph7.2 kmh 29.21 in989.2 mb 0.04 in1.0 mm 0.12 in3.0 mm 0.04 in1.0 mm